Time;durP1;ratioP1;P1;durP2;ratioP2;P2;SDS_P1;SDS_P2;PMS_P1;PMS_P2;Temp;Humidity;BMP_temperature;BMP_pressure;BME280_temperature;BME280_humidity;BME280_pressure;Samples;Min_cycle;Max_cycle;Signal;HPM_P1;HPM_P2
2021/08/12 00:01:08;;;;;;;1.63;1.17;;;15.90;79.60;;;;;;4811215;29;20401;-81
2021/08/12 00:03:35;;;;;;;1.23;0.85;;;15.80;79.50;;;;;;4810870;29;20496;-81
2021/08/12 00:06:00;;;;;;;1.55;1.10;;;15.90;79.70;;;;;;4826223;29;20046;-81
2021/08/12 00:08:26;;;;;;;1.80;0.90;;;15.80;79.70;;;;;;4825279;29;20046;-81
2021/08/12 00:10:52;;;;;;;1.27;0.85;;;15.80;79.70;;;;;;4841342;29;20102;-81
2021/08/12 00:13:19;;;;;;;1.27;1.00;;;15.70;79.70;;;;;;4810346;29;20405;-82
2021/08/12 00:15:46;;;;;;;1.40;1.00;;;15.80;79.80;;;;;;4810973;29;20122;-81
2021/08/12 00:18:12;;;;;;;1.15;0.90;;;15.80;79.80;;;;;;4795420;29;20413;-81
2021/08/12 00:20:37;;;;;;;1.20;0.90;;;15.80;79.90;;;;;;4826228;29;20052;-81
2021/08/12 00:23:04;;;;;;;1.23;0.90;;;15.70;79.90;;;;;;4810241;29;20046;-81
2021/08/12 00:25:29;;;;;;;1.63;1.00;;;15.70;80.00;;;;;;4826368;29;20804;-81
2021/08/12 00:27:55;;;;;;;1.40;0.93;;;15.70;80.00;;;;;;4825600;29;20066;-81
2021/08/12 00:30:21;;;;;;;1.00;0.80;;;15.60;80.00;;;;;;4810147;29;20026;-82
2021/08/12 00:32:46;;;;;;;0.93;0.80;;;15.70;80.10;;;;;;4825894;29;20385;-82
2021/08/12 00:35:12;;;;;;;1.23;0.98;;;15.70;80.10;;;;;;4810227;29;20046;-81
2021/08/12 00:37:38;;;;;;;1.83;1.00;;;15.70;80.20;;;;;;4810228;29;20060;-81
2021/08/12 00:40:05;;;;;;;1.00;0.80;;;15.60;80.20;;;;;;4810066;29;20486;-81
2021/08/12 00:42:31;;;;;;;0.85;0.70;;;15.60;80.30;;;;;;4810811;29;20171;-81
2021/08/12 00:44:56;;;;;;;1.77;0.85;;;15.50;80.30;;;;;;4795128;29;20128;-81
2021/08/12 00:47:22;;;;;;;1.02;0.82;;;15.60;80.50;;;;;;4840335;29;20038;-81
2021/08/12 00:49:48;;;;;;;1.27;1.00;;;15.50;80.50;;;;;;4839685;29;20572;-81
2021/08/12 00:52:15;;;;;;;1.08;0.70;;;15.50;80.50;;;;;;4841471;29;20367;-81
2021/08/12 00:54:41;;;;;;;1.58;0.90;;;15.50;80.60;;;;;;4807816;29;20038;-81
2021/08/12 00:57:09;;;;;;;0.90;0.70;;;15.50;80.60;;;;;;4825085;29;20042;-81
2021/08/12 00:59:37;;;;;;;0.80;0.70;;;15.40;80.60;;;;;;4809843;29;20485;-81
2021/08/12 01:02:07;;;;;;;1.20;0.90;;;15.50;80.70;;;;;;4841303;29;20070;-81
2021/08/12 01:04:33;;;;;;;0.60;0.60;;;15.40;80.70;;;;;;4839525;29;20421;-81
2021/08/12 01:07:10;;;;;;;1.17;0.90;;;15.50;80.80;;;;;;4809668;29;20042;-81
2021/08/12 01:09:47;;;;;;;0.73;0.70;;;15.40;80.80;;;;;;4810558;29;20064;-81
2021/08/12 01:12:20;;;;;;;0.60;0.45;;;15.40;80.80;;;;;;4825056;29;20099;-81
2021/08/12 01:15:05;;;;;;;0.57;0.52;;;15.40;80.80;;;;;;4808376;29;20091;-81
2021/08/12 01:17:40;;;;;;;0.60;0.60;;;15.40;80.80;;;;;;4822660;29;20047;-81
2021/08/12 01:20:32;;;;;;;0.65;0.60;;;15.40;80.80;;;;;;4809002;29;20054;-81
2021/08/12 01:23:00;;;;;;;0.75;0.60;;;15.30;80.80;;;;;;4838627;29;20393;-82
2021/08/12 01:25:29;;;;;;;1.27;0.90;;;15.30;80.80;;;;;;4837935;29;20034;-82
2021/08/12 01:28:02;;;;;;;0.85;0.63;;;15.30;81.00;;;;;;4809301;29;20544;-81
2021/08/12 01:30:34;;;;;;;0.90;0.70;;;15.30;81.10;;;;;;4839778;29;20078;-81
2021/08/12 01:33:12;;;;;;;0.70;0.60;;;15.20;81.10;;;;;;4841401;29;20042;-82
2021/08/12 01:35:39;;;;;;;1.00;0.80;;;15.20;81.10;;;;;;4839723;29;20054;-81
2021/08/12 01:38:18;;;;;;;1.00;0.80;;;15.20;81.10;;;;;;4809656;29;20046;-81
2021/08/12 01:40:45;;;;;;;0.70;0.60;;;15.20;81.30;;;;;;4838217;29;20137;-81
2021/08/12 01:43:16;;;;;;;0.70;0.70;;;15.10;81.20;;;;;;4840710;29;20034;-81
2021/08/12 01:45:48;;;;;;;0.80;0.70;;;15.10;81.40;;;;;;4809402;29;20038;-81
2021/08/12 01:48:14;;;;;;;0.40;0.40;;;15.10;81.40;;;;;;4809696;29;20066;-82
2021/08/12 01:50:42;;;;;;;1.00;0.70;;;15.10;81.40;;;;;;4809059;29;20553;-81
2021/08/12 01:53:10;;;;;;;1.00;0.70;;;15.20;81.50;;;;;;4823043;29;20419;-81
2021/08/12 01:55:36;;;;;;;1.38;0.80;;;15.10;81.40;;;;;;4824373;29;20046;-81
2021/08/12 01:58:04;;;;;;;0.60;0.52;;;15.10;81.50;;;;;;4824128;29;20056;-82
2021/08/12 02:00:31;;;;;;;1.05;0.80;;;15.10;81.50;;;;;;4840635;29;20038;-82
2021/08/12 02:02:58;;;;;;;0.80;0.70;;;15.10;81.50;;;;;;4824200;29;20125;-82
2021/08/12 02:05:25;;;;;;;0.70;0.60;;;15.10;81.50;;;;;;4838894;29;20367;-82
2021/08/12 02:07:52;;;;;;;0.95;0.73;;;15.10;81.50;;;;;;4824419;29;20073;-82
2021/08/12 02:10:18;;;;;;;0.98;0.75;;;15.10;81.50;;;;;;4808994;29;20137;-81
2021/08/12 02:12:44;;;;;;;0.70;0.60;;;15.10;81.50;;;;;;4824053;29;20038;-81
2021/08/12 02:15:12;;;;;;;0.60;0.60;;;15.10;81.60;;;;;;4824757;29;20442;-81
2021/08/12 02:17:37;;;;;;;0.65;0.63;;;15.10;81.60;;;;;;4840394;29;20069;-82
2021/08/12 02:20:07;;;;;;;0.60;0.60;;;15.10;81.50;;;;;;4837733;29;20494;-82
2021/08/12 02:22:43;;;;;;;0.57;0.57;;;15.10;81.60;;;;;;4824084;29;20510;-81
2021/08/12 02:25:13;;;;;;;0.88;0.70;;;15.10;81.60;;;;;;4839271;29;20038;-82
2021/08/12 02:27:43;;;;;;;1.45;1.00;;;15.10;81.60;;;;;;4808973;29;20050;-81
2021/08/12 02:30:11;;;;;;;0.85;0.73;;;15.10;81.70;;;;;;4822068;29;20047;-82
2021/08/12 02:32:40;;;;;;;0.80;0.77;;;15.10;81.80;;;;;;4811543;29;20128;-82
2021/08/12 02:35:10;;;;;;;1.30;0.65;;;15.00;81.80;;;;;;4794083;29;20043;-82
2021/08/12 02:37:37;;;;;;;0.70;0.70;;;15.00;81.90;;;;;;4826896;29;20050;-82
2021/08/12 02:40:05;;;;;;;0.77;0.70;;;15.10;82.00;;;;;;4825093;29;20145;-82
2021/08/12 02:42:32;;;;;;;0.68;0.63;;;15.20;82.00;;;;;;4811943;29;20046;-82
2021/08/12 02:44:59;;;;;;;1.77;1.00;;;15.10;81.90;;;;;;4827694;29;20546;-82
2021/08/12 02:47:26;;;;;;;1.15;0.80;;;15.10;81.90;;;;;;4826957;29;20042;-82
2021/08/12 02:49:55;;;;;;;0.73;0.60;;;15.10;82.00;;;;;;4811766;29;20042;-82
2021/08/12 02:52:21;;;;;;;1.35;0.93;;;15.00;82.10;;;;;;4843529;29;20070;-82
2021/08/12 02:54:49;;;;;;;0.57;0.47;;;15.00;82.10;;;;;;4826776;29;20079;-82
2021/08/12 02:57:16;;;;;;;0.73;0.68;;;15.00;82.20;;;;;;4826519;29;20058;-82
2021/08/12 02:59:43;;;;;;;0.90;0.73;;;15.10;82.20;;;;;;4796528;29;20041;-82
2021/08/12 03:02:10;;;;;;;1.10;0.73;;;15.10;82.30;;;;;;4841096;29;20073;-82
2021/08/12 03:04:36;;;;;;;0.88;0.70;;;15.10;82.30;;;;;;4796339;29;20034;-82
2021/08/12 03:07:03;;;;;;;1.48;0.73;;;15.00;82.20;;;;;;4826516;29;20057;-82
2021/08/12 03:09:30;;;;;;;0.95;0.85;;;15.10;82.90;;;;;;4826689;29;20049;-82
2021/08/12 03:11:59;;;;;;;0.60;0.60;;;15.00;82.20;;;;;;4811355;29;20042;-82
2021/08/12 03:14:26;;;;;;;0.73;0.70;;;15.00;82.30;;;;;;4825059;29;20397;-82
2021/08/12 03:16:52;;;;;;;2.80;1.10;;;15.10;82.40;;;;;;4794578;29;20046;-82
2021/08/12 03:19:18;;;;;;;0.88;0.70;;;15.10;82.40;;;;;;4826746;29;20038;-82
2021/08/12 03:22:04;;;;;;;0.82;0.70;;;15.00;82.40;;;;;;4811652;29;20465;-82
2021/08/12 03:24:34;;;;;;;1.35;0.70;;;15.10;82.60;;;;;;4839644;29;20482;-82
2021/08/12 03:27:00;;;;;;;0.80;0.73;;;15.00;82.60;;;;;;4808540;29;20060;-82
2021/08/12 03:29:26;;;;;;;1.60;1.08;;;15.00;82.60;;;;;;4842710;29;20042;-82
2021/08/12 03:31:52;;;;;;;0.57;0.57;;;15.10;82.80;;;;;;4840876;29;20053;-82
2021/08/12 03:34:18;;;;;;;1.02;0.70;;;14.90;82.70;;;;;;4826205;29;20409;-83
2021/08/12 03:36:44;;;;;;;1.40;0.88;;;15.00;82.90;;;;;;4841249;29;20076;-82
2021/08/12 03:39:10;;;;;;;1.73;0.63;;;14.90;82.90;;;;;;4810908;29;20069;-83
2021/08/12 03:41:36;;;;;;;0.63;0.60;;;14.90;83.00;;;;;;4811441;29;20046;-82
2021/08/12 03:44:02;;;;;;;0.63;0.52;;;14.90;83.00;;;;;;4839253;29;20030;-82
2021/08/12 03:46:28;;;;;;;0.85;0.77;;;14.90;83.00;;;;;;4842711;29;20166;-82
2021/08/12 03:48:54;;;;;;;0.75;0.70;;;14.90;83.70;;;;;;4824129;29;20095;-82
2021/08/12 03:51:19;;;;;;;1.23;0.70;;;14.90;83.10;;;;;;4826041;29;20046;-84
2021/08/12 03:53:45;;;;;;;0.70;0.60;;;14.80;83.10;;;;;;4841546;29;20351;-83
2021/08/12 03:56:11;;;;;;;1.15;1.02;;;14.80;83.10;;;;;;4826531;29;20049;-82
2021/08/12 03:58:39;;;;;;;0.75;0.70;;;14.90;83.20;;;;;;4809937;29;20072;-82
2021/08/12 04:01:05;;;;;;;0.50;0.50;;;14.90;83.20;;;;;;4826548;29;20034;-83
2021/08/12 04:03:31;;;;;;;0.65;0.60;;;14.90;83.20;;;;;;4842412;29;20037;-82
2021/08/12 04:05:57;;;;;;;0.68;0.60;;;14.80;83.20;;;;;;4811344;29;20057;-83
2021/08/12 04:08:22;;;;;;;0.95;0.80;;;14.80;83.20;;;;;;4810734;29;20379;-82
2021/08/12 04:10:50;;;;;;;0.90;0.70;;;14.80;83.20;;;;;;4826503;29;20454;-82
2021/08/12 04:13:16;;;;;;;1.02;0.82;;;14.80;83.30;;;;;;4811334;29;20038;-83
2021/08/12 04:15:42;;;;;;;1.33;0.90;;;14.80;83.30;;;;;;4826490;29;20038;-83
2021/08/12 04:18:08;;;;;;;1.50;1.00;;;14.70;83.30;;;;;;4795470;29;20382;-83
2021/08/12 04:20:33;;;;;;;0.90;0.60;;;14.80;83.40;;;;;;4810567;29;20042;-82
2021/08/12 04:22:59;;;;;;;1.30;0.90;;;14.70;83.40;;;;;;4808718;29;20046;-83
2021/08/12 04:25:25;;;;;;;1.10;0.70;;;14.70;83.50;;;;;;4842219;29;20053;-83
2021/08/12 04:27:50;;;;;;;0.98;0.70;;;14.70;84.20;;;;;;4810450;29;20042;-82
2021/08/12 04:30:16;;;;;;;1.02;0.68;;;14.80;83.70;;;;;;4842210;29;20046;-83
2021/08/12 04:32:42;;;;;;;0.73;0.63;;;14.70;83.60;;;;;;4840231;29;20034;-82
2021/08/12 04:35:08;;;;;;;1.33;0.80;;;14.70;83.50;;;;;;4825654;29;20064;-83
2021/08/12 04:37:37;;;;;;;1.00;0.65;;;14.70;83.50;;;;;;4794042;29;20047;-83
2021/08/12 04:40:14;;;;;;;0.73;0.68;;;14.70;83.50;;;;;;4811117;29;20042;-83
2021/08/12 04:42:40;;;;;;;0.98;0.77;;;14.70;83.50;;;;;;4792089;29;20131;-83
2021/08/12 04:45:06;;;;;;;1.08;0.70;;;14.70;83.50;;;;;;4805288;29;20125;-83
2021/08/12 04:47:32;;;;;;;0.70;0.70;;;14.70;83.50;;;;;;4804433;29;20053;-83
2021/08/12 04:49:58;;;;;;;1.25;0.95;;;14.80;83.50;;;;;;4804991;29;20070;-83
2021/08/12 04:52:24;;;;;;;0.95;0.85;;;14.80;83.50;;;;;;4819031;29;20069;-83
2021/08/12 04:54:50;;;;;;;0.70;0.68;;;14.80;83.50;;;;;;4804521;29;20504;-83
2021/08/12 04:57:16;;;;;;;1.35;0.95;;;14.80;83.50;;;;;;4789935;29;20107;-83
2021/08/12 04:59:41;;;;;;;0.80;0.80;;;14.80;83.40;;;;;;4803513;29;20046;-83
2021/08/12 05:13:37;;;;;;;0.88;0.60;;;14.80;83.50;;;;;;5129874;27;20164;-83
2021/08/12 05:16:02;;;;;;;0.75;0.60;;;14.80;83.20;;;;;;5006510;28;20054;-83
2021/08/12 05:18:28;;;;;;;0.50;0.50;;;14.80;83.10;;;;;;4996649;28;20053;-82
2021/08/12 05:29:07;;;;;;;0.90;0.60;;;14.80;83.30;;;;;;4909843;29;20036;-81
2021/08/12 05:35:30;;;;;;;0.77;0.60;;;14.90;83.20;;;;;;4849183;29;20094;-82
2021/08/12 05:38:57;;;;;;;0.70;0.55;;;14.90;83.10;;;;;;4823391;29;20058;-81
2021/08/12 05:41:54;;;;;;;0.47;0.47;;;15.00;83.10;;;;;;4743437;30;20052;-82
2021/08/12 05:44:20;;;;;;;0.63;0.50;;;15.00;83.00;;;;;;4709372;30;20059;-82
2021/08/12 05:47:00;;;;;;;0.57;0.30;;;15.10;82.90;;;;;;4726569;30;20045;-81
2021/08/12 05:49:25;;;;;;;0.63;0.60;;;15.00;82.80;;;;;;4717842;30;20054;-81
2021/08/12 05:51:52;;;;;;;0.77;0.65;;;15.30;82.90;;;;;;4694578;30;20111;-81
2021/08/12 05:54:18;;;;;;;0.75;0.68;;;15.30;82.80;;;;;;4753594;30;20138;-81
2021/08/12 05:56:44;;;;;;;1.88;0.60;;;15.40;82.70;;;;;;4796391;29;20497;-81
2021/08/12 05:59:10;;;;;;;0.70;0.60;;;15.40;82.70;;;;;;4788795;29;20048;-83
2021/08/12 06:01:36;;;;;;;0.80;0.70;;;15.50;82.70;;;;;;4821653;29;20144;-83
2021/08/12 06:04:02;;;;;;;1.20;0.90;;;15.50;82.70;;;;;;4875891;29;20053;-83
2021/08/12 06:06:30;;;;;;;0.77;0.70;;;15.60;82.70;;;;;;4875372;29;20041;-83
2021/08/12 06:08:55;;;;;;;1.38;0.80;;;15.60;82.70;;;;;;4875366;29;20032;-81
2021/08/12 06:11:21;;;;;;;1.10;0.77;;;15.60;82.70;;;;;;4990996;28;20048;-82
2021/08/12 06:13:47;;;;;;;0.55;0.55;;;15.70;82.70;;;;;;5063108;28;20041;-83
2021/08/12 06:16:13;;;;;;;0.85;0.80;;;15.80;82.70;;;;;;5044529;28;20037;-82
2021/08/12 06:18:39;;;;;;;1.45;1.00;;;15.90;82.80;;;;;;5043646;28;20105;-81
2021/08/12 06:21:04;;;;;;;1.65;1.20;;;15.90;82.70;;;;;;5071247;28;20100;-81
2021/08/12 06:23:30;;;;;;;0.80;0.70;;;15.90;82.50;;;;;;5080043;28;20043;-81
2021/08/12 06:25:58;;;;;;;1.67;1.13;;;16.10;82.40;;;;;;5115127;28;20039;-81
2021/08/12 06:28:24;;;;;;;1.92;1.13;;;16.20;82.30;;;;;;5096512;28;20039;-82
2021/08/12 06:30:50;;;;;;;2.40;1.60;;;16.20;82.10;;;;;;5098656;28;20074;-81
2021/08/12 06:33:15;;;;;;;2.20;1.15;;;16.30;82.00;;;;;;5080563;28;20046;-81
2021/08/12 06:35:43;;;;;;;1.77;1.13;;;16.50;82.00;;;;;;5116026;28;20444;-81
2021/08/12 06:38:09;;;;;;;1.42;1.00;;;16.50;81.90;;;;;;5097112;28;20399;-81
2021/08/12 06:40:35;;;;;;;1.98;1.30;;;16.60;81.70;;;;;;5115794;28;20088;-81
2021/08/12 06:43:00;;;;;;;2.45;1.60;;;16.70;81.60;;;;;;5116223;28;20065;-79
2021/08/12 06:45:26;;;;;;;1.83;1.20;;;16.70;81.60;;;;;;5108299;28;20498;-81
2021/08/12 06:47:53;;;;;;;2.20;1.55;;;16.80;81.50;;;;;;5126118;28;20039;-80
2021/08/12 06:50:22;;;;;;;2.75;1.52;;;16.90;81.40;;;;;;5099916;28;20043;-83
2021/08/12 06:53:01;;;;;;;1.75;1.30;;;16.90;81.30;;;;;;5077929;28;20452;-82
2021/08/12 06:55:26;;;;;;;2.13;1.33;;;16.90;81.20;;;;;;5034645;28;20044;-82
2021/08/12 06:58:04;;;;;;;2.47;1.50;;;17.20;81.30;;;;;;5018338;28;20132;-81
2021/08/12 07:01:06;;;;;;;1.13;1.00;;;17.10;81.20;;;;;;5018289;28;20132;-83
2021/08/12 07:03:50;;;;;;;1.75;1.20;;;17.20;81.10;;;;;;5034439;28;20037;-81
2021/08/12 07:06:16;;;;;;;1.33;1.02;;;17.30;81.00;;;;;;4989662;28;20073;-82
2021/08/12 07:08:47;;;;;;;1.98;1.40;;;17.30;80.90;;;;;;4990862;28;20090;-80
2021/08/12 07:11:32;;;;;;;2.40;1.55;;;17.40;80.90;;;;;;4960400;28;20043;-80
2021/08/12 07:14:19;;;;;;;1.80;1.10;;;17.40;80.80;;;;;;4939610;29;20043;-81
2021/08/12 07:16:44;;;;;;;1.70;1.25;;;17.50;80.70;;;;;;4938181;29;20047;-80
2021/08/12 07:19:18;;;;;;;1.38;1.02;;;17.60;80.50;;;;;;4957446;28;20078;-80
2021/08/12 07:21:43;;;;;;;1.77;1.33;;;17.70;80.40;;;;;;4926808;28;20062;-80
2021/08/12 07:24:09;;;;;;;2.08;1.27;;;17.80;80.30;;;;;;4955716;28;20055;-80
2021/08/12 07:26:36;;;;;;;1.42;1.13;;;17.80;80.10;;;;;;4957061;28;20616;-81
2021/08/12 07:29:07;;;;;;;1.85;1.42;;;18.00;80.00;;;;;;4940681;28;20137;-82
2021/08/12 07:35:18;;;;;;;2.70;1.10;;;18.20;79.70;;;;;;4858408;29;20112;-80
2021/08/12 07:37:47;;;;;;;1.83;1.20;;;18.30;79.60;;;;;;5112595;22;20077;-79
2021/08/12 07:40:44;;;;;;;1.00;0.88;;;18.30;79.40;;;;;;5001373;28;20049;-82
2021/08/12 07:43:10;;;;;;;0.85;0.70;;;18.40;79.90;;;;;;4997297;28;20529;-80
2021/08/12 07:45:35;;;;;;;0.98;0.90;;;18.50;79.20;;;;;;5007713;28;20038;-78
2021/08/12 07:48:01;;;;;;;1.90;1.30;;;18.50;79.20;;;;;;4991203;28;20070;-80
2021/08/12 07:50:27;;;;;;;1.23;1.00;;;18.60;79.20;;;;;;5008671;28;20046;-80
2021/08/12 07:52:54;;;;;;;1.48;1.00;;;18.70;79.10;;;;;;4994579;28;20522;-81
2021/08/12 07:55:21;;;;;;;1.95;1.30;;;18.80;79.00;;;;;;5010282;28;20038;-79
2021/08/12 07:57:48;;;;;;;3.67;1.45;;;19.00;78.80;;;;;;4992503;28;20038;-80
2021/08/12 08:00:14;;;;;;;2.15;1.38;;;19.20;78.40;;;;;;4992013;28;20084;-81
2021/08/12 08:02:42;;;;;;;2.08;1.40;;;19.30;77.90;;;;;;4995833;28;20038;-77
2021/08/12 08:05:08;;;;;;;1.90;1.27;;;19.50;77.60;;;;;;5012609;28;20030;-81
2021/08/12 08:07:34;;;;;;;1.50;1.20;;;19.80;77.40;;;;;;4991833;28;20034;-80
2021/08/12 08:10:00;;;;;;;1.58;1.20;;;19.90;77.00;;;;;;4996669;28;20026;-78
2021/08/12 08:12:26;;;;;;;1.95;1.50;;;20.10;76.80;;;;;;5030704;28;20045;-78
2021/08/12 08:14:51;;;;;;;3.47;1.45;;;20.20;76.50;;;;;;5021938;28;20084;-78
2021/08/12 08:17:17;;;;;;;3.53;1.40;;;20.30;76.20;;;;;;5033390;28;20057;-78
2021/08/12 08:19:46;;;;;;;2.95;1.70;;;20.50;76.00;;;;;;5011145;28;20059;-79
2021/08/12 08:22:13;;;;;;;2.33;1.42;;;20.60;75.90;;;;;;5026981;28;20045;-79
2021/08/12 08:24:40;;;;;;;1.02;0.93;;;20.70;75.80;;;;;;5018307;28;20087;-80
2021/08/12 08:27:09;;;;;;;1.27;1.00;;;20.80;75.70;;;;;;5018631;28;20068;-80
2021/08/12 08:29:53;;;;;;;1.08;0.98;;;21.00;75.60;;;;;;5000289;28;20112;-81
2021/08/12 08:32:43;;;;;;;1.38;1.20;;;21.20;75.50;;;;;;4995747;28;20044;-82
2021/08/12 08:36:02;;;;;;;1.02;0.90;;;21.40;75.00;;;;;;4963550;28;20137;-81
2021/08/12 08:42:12;;;;;;;2.35;1.15;;;21.70;74.80;;;;;;4988293;28;20466;-79
2021/08/12 08:44:53;;;;;;;1.48;1.13;;;21.80;74.70;;;;;;4958020;28;20046;-79
2021/08/12 08:47:35;;;;;;;;;;;21.90;74.40;;;;;;4949141;28;20047;-80
2021/08/12 08:50:01;;;;;;;1.80;1.02;;;22.10;74.40;;;;;;4951190;28;20410;-79
2021/08/12 08:52:28;;;;;;;1.17;1.08;;;22.00;74.20;;;;;;4975564;28;20105;-79
2021/08/12 08:54:54;;;;;;;1.25;0.95;;;22.00;74.40;;;;;;4975090;28;20126;-79
2021/08/12 08:57:22;;;;;;;1.67;1.27;;;22.10;74.40;;;;;;4977236;28;20058;-80
2021/08/12 08:59:48;;;;;;;1.95;1.40;;;22.10;74.30;;;;;;4957704;28;20447;-79
2021/08/12 09:02:14;;;;;;;1.60;1.23;;;22.20;74.20;;;;;;4957334;28;20062;-79
2021/08/12 09:04:40;;;;;;;2.53;1.40;;;22.40;74.00;;;;;;4976674;28;20121;-79
2021/08/12 09:07:08;;;;;;;1.67;1.10;;;22.40;73.90;;;;;;4991300;28;20038;-81
2021/08/12 09:09:35;;;;;;;1.40;1.00;;;22.60;73.70;;;;;;4974022;28;20051;-81
2021/08/12 09:12:02;;;;;;;2.75;1.30;;;22.60;73.60;;;;;;4984548;28;20105;-82
2021/08/12 09:14:43;;;;;;;1.67;1.30;;;22.70;73.60;;;;;;4992038;28;20502;-79
2021/08/12 09:17:26;;;;;;;2.72;1.55;;;22.70;73.30;;;;;;4997360;28;20053;-80
2021/08/12 09:20:18;;;;;;;1.88;1.33;;;22.80;73.10;;;;;;4997449;28;20036;-81
2021/08/12 09:23:07;;;;;;;1.50;1.08;;;22.90;72.80;;;;;;5015405;28;20045;-80
2021/08/12 09:25:45;;;;;;;1.67;1.23;;;22.90;72.70;;;;;;4999288;28;20029;-79
2021/08/12 09:28:33;;;;;;;1.35;1.02;;;23.00;72.80;;;;;;5016600;28;20042;-80
2021/08/12 09:31:09;;;;;;;2.40;1.40;;;23.20;72.70;;;;;;5031850;28;20037;-83
2021/08/12 09:33:53;;;;;;;1.25;1.00;;;23.20;72.40;;;;;;5014486;28;20092;-81
2021/08/12 09:36:24;;;;;;;2.22;1.30;;;23.30;72.20;;;;;;4982586;28;20045;-80
2021/08/12 09:39:22;;;;;;;1.50;1.10;;;23.50;72.10;;;;;;4996940;28;20114;-81
2021/08/12 09:41:50;;;;;;;1.38;1.00;;;23.50;72.00;;;;;;5004182;28;20050;-79
2021/08/12 09:44:40;;;;;;;1.10;1.00;;;23.50;71.90;;;;;;5013696;28;20063;-78
2021/08/12 09:47:10;;;;;;;1.77;1.27;;;23.60;71.70;;;;;;5035011;28;20025;-79
2021/08/12 09:49:39;;;;;;;0.85;0.82;;;23.60;71.60;;;;;;5037202;28;20057;-80
2021/08/12 09:52:39;;;;;;;1.98;1.10;;;23.70;71.70;;;;;;5036946;28;20044;-80
2021/08/12 09:55:18;;;;;;;1.60;1.00;;;23.60;71.50;;;;;;5031771;28;20073;-80
2021/08/12 09:57:46;;;;;;;1.02;0.93;;;23.80;71.70;;;;;;4987339;28;20080;-80
2021/08/12 10:00:38;;;;;;;1.02;0.90;;;23.70;71.60;;;;;;4984211;28;20034;-80
2021/08/12 10:03:21;;;;;;;1.45;1.00;;;23.80;71.60;;;;;;5003359;28;20375;-79
2021/08/12 10:05:47;;;;;;;1.45;1.05;;;23.80;71.40;;;;;;5034834;28;20034;-79
2021/08/12 10:08:25;;;;;;;2.15;1.20;;;23.80;71.40;;;;;;5035882;28;20036;-80
2021/08/12 10:10:50;;;;;;;2.33;1.00;;;23.80;71.20;;;;;;5003364;28;20481;-80
2021/08/12 10:13:16;;;;;;;1.45;1.30;;;23.80;71.20;;;;;;5035563;28;20037;-81
2021/08/12 10:15:48;;;;;;;2.10;1.50;;;23.80;71.10;;;;;;5001095;28;20464;-83
2021/08/12 10:18:47;;;;;;;1.60;1.20;;;23.80;70.90;;;;;;5000701;28;20049;-81
2021/08/12 10:21:14;;;;;;;1.65;1.20;;;23.80;70.80;;;;;;5032362;28;20053;-79
2021/08/12 10:23:42;;;;;;;1.55;1.10;;;24.00;70.70;;;;;;5017216;28;20445;-80
2021/08/12 10:26:09;;;;;;;2.00;1.30;;;24.10;70.50;;;;;;4999735;28;20048;-79
2021/08/12 10:28:38;;;;;;;2.10;1.40;;;24.00;70.30;;;;;;5015358;28;20045;-82
2021/08/12 10:31:05;;;;;;;1.70;1.20;;;24.10;70.20;;;;;;4999013;28;20083;-81
2021/08/12 10:33:33;;;;;;;1.88;1.17;;;24.10;70.10;;;;;;5015267;28;20041;-80
2021/08/12 10:36:00;;;;;;;1.52;1.10;;;24.20;70.10;;;;;;5031946;28;20049;-80
2021/08/12 10:38:26;;;;;;;2.35;1.40;;;24.40;69.90;;;;;;5015327;28;20033;-80
2021/08/12 10:40:53;;;;;;;1.10;1.00;;;24.40;69.70;;;;;;5015112;28;20072;-79
2021/08/12 10:43:24;;;;;;;1.33;1.20;;;24.40;69.70;;;;;;4987591;28;20033;-79
2021/08/12 10:46:00;;;;;;;1.23;1.08;;;24.50;69.60;;;;;;5034866;28;20049;-80
2021/08/12 10:48:28;;;;;;;1.50;1.08;;;24.50;69.50;;;;;;5037712;28;20042;-80
2021/08/12 10:51:11;;;;;;;1.23;1.13;;;24.60;69.40;;;;;;5018356;28;20045;-82
2021/08/12 10:53:42;;;;;;;1.13;1.00;;;24.60;69.30;;;;;;5005603;28;20128;-82
2021/08/12 10:56:13;;;;;;;1.25;1.10;;;24.60;69.20;;;;;;5022983;28;20085;-81
2021/08/12 10:58:45;;;;;;;1.42;1.15;;;24.70;69.20;;;;;;5023768;28;20068;-79
2021/08/12 11:01:13;;;;;;;1.88;1.33;;;24.70;69.70;;;;;;5023214;28;20041;-78
2021/08/12 11:03:43;;;;;;;1.00;0.85;;;24.70;68.80;;;;;;5016168;28;20071;-79
2021/08/12 11:06:11;;;;;;;;;;;24.80;68.70;;;;;;5025376;28;20060;-80
2021/08/12 11:09:04;;;;;;;1.40;1.20;;;24.90;68.70;;;;;;5034613;28;20319;-79
2021/08/12 11:11:50;;;;;;;1.52;1.30;;;24.90;68.60;;;;;;5051126;28;20056;-79
2021/08/12 11:14:43;;;;;;;1.58;1.30;;;24.90;68.40;;;;;;5004415;28;20424;-82
2021/08/12 11:17:09;;;;;;;2.60;1.30;;;24.90;68.30;;;;;;5018513;28;20038;-80
2021/08/12 11:19:36;;;;;;;2.05;1.23;;;24.90;68.30;;;;;;5006108;28;20044;-80
2021/08/12 11:22:02;;;;;;;1.70;1.20;;;24.90;68.10;;;;;;5038088;28;20044;-81
2021/08/12 11:24:48;;;;;;;1.30;1.15;;;25.00;68.20;;;;;;5037990;28;20029;-81
2021/08/12 11:27:14;;;;;;;1.17;1.08;;;25.00;68.10;;;;;;5003325;28;20040;-79
2021/08/12 11:29:40;;;;;;;1.10;1.00;;;25.10;68.10;;;;;;5000554;28;20420;-81
2021/08/12 11:32:13;;;;;;;0.93;0.82;;;25.20;68.00;;;;;;5034841;28;20043;-81
2021/08/12 11:34:56;;;;;;;1.65;1.15;;;25.20;67.80;;;;;;5003192;28;20041;-81
2021/08/12 11:37:28;;;;;;;1.65;1.13;;;25.20;67.80;;;;;;5017628;28;20050;-79
2021/08/12 11:40:10;;;;;;;1.30;1.20;;;25.30;67.80;;;;;;5033437;28;20042;-82
2021/08/12 11:42:43;;;;;;;1.10;1.00;;;25.30;68.20;;;;;;5023291;28;20050;-82
2021/08/12 11:45:11;;;;;;;1.42;1.20;;;25.40;67.60;;;;;;5019127;28;20041;-79
2021/08/12 11:47:39;;;;;;;2.25;1.25;;;25.30;67.60;;;;;;5015683;28;20041;-80
2021/08/12 11:50:12;;;;;;;1.25;1.08;;;25.30;67.50;;;;;;5016356;28;20560;-84
2021/08/12 11:52:51;;;;;;;1.27;1.17;;;25.20;67.60;;;;;;4995012;28;20050;-81
2021/08/12 11:55:20;;;;;;;1.20;1.08;;;25.20;67.70;;;;;;4979882;28;20076;-83
2021/08/12 11:57:57;;;;;;;1.70;1.15;;;25.20;67.50;;;;;;4978337;28;20060;-82
2021/08/12 12:00:37;;;;;;;1.20;1.10;;;25.20;67.10;;;;;;5010788;28;20084;-87
2021/08/12 12:03:05;;;;;;;1.23;0.87;;;25.30;67.20;;;;;;4972116;28;20057;-84
2021/08/12 12:05:51;;;;;;;1.15;1.00;;;25.30;67.20;;;;;;4975769;28;20124;-83
2021/08/12 12:08:27;;;;;;;2.00;1.42;;;25.30;67.20;;;;;;4995980;28;20042;-80
2021/08/12 12:10:53;;;;;;;2.30;1.30;;;25.20;67.10;;;;;;4981585;28;20562;-80
2021/08/12 12:13:20;;;;;;;2.15;1.50;;;25.10;67.30;;;;;;5015118;28;20046;-83
2021/08/12 12:16:21;;;;;;;1.15;1.05;;;25.10;67.30;;;;;;5011574;28;20084;-87
2021/08/12 12:18:46;;;;;;;1.23;1.10;;;25.20;67.40;;;;;;4974840;28;20057;-83
2021/08/12 12:21:17;;;;;;;1.33;1.15;;;25.20;67.40;;;;;;4975254;28;20046;-81
2021/08/12 12:23:46;;;;;;;1.60;1.20;;;25.10;67.20;;;;;;4975118;28;20032;-79
2021/08/12 12:26:27;;;;;;;1.20;1.10;;;25.30;67.40;;;;;;4958227;28;20095;-81
2021/08/12 12:28:55;;;;;;;1.50;1.10;;;25.20;67.40;;;;;;4998637;28;20428;-80
2021/08/12 12:31:23;;;;;;;1.13;1.02;;;25.20;67.40;;;;;;4983200;28;20037;-80
2021/08/12 12:34:01;;;;;;;1.25;1.15;;;25.20;67.30;;;;;;4982125;28;20120;-78
2021/08/12 12:36:28;;;;;;;1.05;0.80;;;25.20;67.70;;;;;;4983172;28;20057;-80
2021/08/12 12:38:56;;;;;;;2.30;1.40;;;25.40;67.30;;;;;;5018385;28;20143;-82
2021/08/12 12:41:22;;;;;;;1.90;1.20;;;25.30;67.20;;;;;;5035885;28;20056;-81
2021/08/12 12:43:48;;;;;;;1.15;1.02;;;25.40;67.00;;;;;;5054692;28;20029;-83
2021/08/12 12:46:29;;;;;;;1.23;1.05;;;25.40;66.90;;;;;;5020979;28;20051;-82
2021/08/12 12:48:55;;;;;;;0.98;0.90;;;25.60;66.70;;;;;;5052506;28;20033;-81
2021/08/12 12:51:26;;;;;;;1.00;0.90;;;25.60;66.60;;;;;;5002151;28;20504;-81
2021/08/12 12:53:52;;;;;;;1.15;1.05;;;25.60;66.60;;;;;;5038478;28;20124;-80
2021/08/12 12:56:20;;;;;;;1.25;1.00;;;25.50;66.60;;;;;;5022161;28;20068;-81
2021/08/12 12:58:45;;;;;;;1.10;0.93;;;25.50;66.70;;;;;;5055221;28;20032;-81
2021/08/12 13:01:20;;;;;;;1.33;1.00;;;25.40;66.80;;;;;;5039055;28;20415;-81
2021/08/12 13:04:02;;;;;;;1.90;1.05;;;25.30;67.00;;;;;;5036121;28;20044;-81
2021/08/12 13:06:37;;;;;;;1.25;1.10;;;25.40;67.10;;;;;;5034985;28;20033;-81
2021/08/12 13:09:04;;;;;;;1.38;1.25;;;25.30;67.10;;;;;;4988158;28;20497;-80
2021/08/12 13:11:32;;;;;;;1.40;1.00;;;25.30;67.20;;;;;;5020375;28;20116;-80
2021/08/12 13:14:12;;;;;;;1.25;1.10;;;25.20;67.40;;;;;;5018416;28;20116;-79
2021/08/12 13:16:43;;;;;;;1.52;1.30;;;25.10;67.50;;;;;;5033678;28;20038;-80
2021/08/12 13:19:23;;;;;;;1.30;1.20;;;25.20;67.50;;;;;;5033931;28;20045;-81
2021/08/12 13:21:50;;;;;;;1.92;1.27;;;25.10;67.30;;;;;;5037288;28;20037;-82
2021/08/12 13:24:20;;;;;;;1.48;1.10;;;25.10;67.40;;;;;;5021130;28;20549;-82
2021/08/12 13:26:59;;;;;;;1.35;1.10;;;25.10;67.40;;;;;;5019773;28;20029;-80
2021/08/12 13:29:30;;;;;;;1.35;1.25;;;25.10;67.50;;;;;;5035301;28;20120;-80
2021/08/12 13:32:06;;;;;;;1.30;1.10;;;25.10;67.50;;;;;;5017129;28;20134;-81
2021/08/12 13:45:31;;;;;;;1.20;0.93;;;25.20;67.40;;;;;;4949184;29;20098;-83
2021/08/12 13:47:59;;;;;;;1.63;1.10;;;25.30;67.40;;;;;;4935624;29;20043;-83